sensor_id;sensor_type;location;lat;lon;timestamp;temperature;humidity
65470;DHT22;52067;50.710;14.492;2023-09-19T00:01:05;16.71;89.91
65470;DHT22;52067;50.710;14.492;2023-09-19T00:03:32;16.61;89.95
65470;DHT22;52067;50.710;14.492;2023-09-19T00:05:58;16.51;89.88
65470;DHT22;52067;50.710;14.492;2023-09-19T00:08:23;16.69;89.52
65470;DHT22;52067;50.710;14.492;2023-09-19T00:10:48;16.34;90.19
65470;DHT22;52067;50.710;14.492;2023-09-19T00:13:13;16.24;90.32
65470;DHT22;52067;50.710;14.492;2023-09-19T00:15:41;16.26;90.26
65470;DHT22;52067;50.710;14.492;2023-09-19T00:18:07;16.28;90.14
65470;DHT22;52067;50.710;14.492;2023-09-19T00:20:35;16.44;89.95
65470;DHT22;52067;50.710;14.492;2023-09-19T00:23:01;16.53;89.57
65470;DHT22;52067;50.710;14.492;2023-09-19T00:25:34;16.47;89.50
65470;DHT22;52067;50.710;14.492;2023-09-19T00:28:06;16.33;89.64
65470;DHT22;52067;50.710;14.492;2023-09-19T00:30:32;15.99;90.40
65470;DHT22;52067;50.710;14.492;2023-09-19T00:32:58;16.20;90.27
65470;DHT22;52067;50.710;14.492;2023-09-19T00:35:23;16.34;90.13
65470;DHT22;52067;50.710;14.492;2023-09-19T00:37:49;16.48;89.79
65470;DHT22;52067;50.710;14.492;2023-09-19T00:40:14;16.44;89.74
65470;DHT22;52067;50.710;14.492;2023-09-19T00:42:42;16.44;89.44
65470;DHT22;52067;50.710;14.492;2023-09-19T00:45:08;16.44;89.22
65470;DHT22;52067;50.710;14.492;2023-09-19T00:47:40;16.50;89.23
65470;DHT22;52067;50.710;14.492;2023-09-19T00:50:06;16.30;89.48
65470;DHT22;52067;50.710;14.492;2023-09-19T00:52:34;16.05;89.99
65470;DHT22;52067;50.710;14.492;2023-09-19T00:55:01;16.09;90.51
65470;DHT22;52067;50.710;14.492;2023-09-19T00:57:27;15.97;90.45
65470;DHT22;52067;50.710;14.492;2023-09-19T00:59:53;15.95;90.34
65470;DHT22;52067;50.710;14.492;2023-09-19T01:02:19;16.02;89.93
65470;DHT22;52067;50.710;14.492;2023-09-19T01:04:44;16.12;89.92
65470;DHT22;52067;50.710;14.492;2023-09-19T01:07:09;16.03;90.17
65470;DHT22;52067;50.710;14.492;2023-09-19T01:09:35;16.05;90.23
65470;DHT22;52067;50.710;14.492;2023-09-19T01:12:02;15.85;90.15
65470;DHT22;52067;50.710;14.492;2023-09-19T01:14:35;16.09;89.85
65470;DHT22;52067;50.710;14.492;2023-09-19T01:19:53;16.18;89.60
65470;DHT22;52067;50.710;14.492;2023-09-19T01:22:29;15.83;89.86
65470;DHT22;52067;50.710;14.492;2023-09-19T01:26:04;15.69;90.16
65470;DHT22;52067;50.710;14.492;2023-09-19T01:30:20;15.41;90.46
65470;DHT22;52067;50.710;14.492;2023-09-19T01:32:50;15.42;90.69
65470;DHT22;52067;50.710;14.492;2023-09-19T01:35:17;15.44;90.80
65470;DHT22;52067;50.710;14.492;2023-09-19T01:37:43;15.42;90.64
65470;DHT22;52067;50.710;14.492;2023-09-19T01:40:10;15.42;90.62
65470;DHT22;52067;50.710;14.492;2023-09-19T01:42:57;15.66;90.42
65470;DHT22;52067;50.710;14.492;2023-09-19T01:45:34;15.54;90.12
65470;DHT22;52067;50.710;14.492;2023-09-19T01:48:05;15.82;90.13
65470;DHT22;52067;50.710;14.492;2023-09-19T01:50:49;15.75;89.83
65470;DHT22;52067;50.710;14.492;2023-09-19T01:53:28;15.88;90.09
65470;DHT22;52067;50.710;14.492;2023-09-19T01:55:55;15.90;89.75
65470;DHT22;52067;50.710;14.492;2023-09-19T01:58:26;15.90;89.66
65470;DHT22;52067;50.710;14.492;2023-09-19T02:00:52;15.65;89.57
65470;DHT22;52067;50.710;14.492;2023-09-19T02:03:19;15.54;90.55
65470;DHT22;52067;50.710;14.492;2023-09-19T02:05:51;15.73;89.88
65470;DHT22;52067;50.710;14.492;2023-09-19T02:08:19;15.83;89.50
65470;DHT22;52067;50.710;14.492;2023-09-19T02:10:45;15.55;89.91
65470;DHT22;52067;50.710;14.492;2023-09-19T02:13:23;15.34;90.63
65470;DHT22;52067;50.710;14.492;2023-09-19T02:15:52;15.26;90.52
65470;DHT22;52067;50.710;14.492;2023-09-19T02:18:17;15.27;90.81
65470;DHT22;52067;50.710;14.492;2023-09-19T02:20:43;15.54;90.43
65470;DHT22;52067;50.710;14.492;2023-09-19T02:23:09;15.30;90.45
65470;DHT22;52067;50.710;14.492;2023-09-19T02:25:35;15.51;90.41
65470;DHT22;52067;50.710;14.492;2023-09-19T02:28:00;15.63;90.05
65470;DHT22;52067;50.710;14.492;2023-09-19T02:30:28;15.78;89.83
65470;DHT22;52067;50.710;14.492;2023-09-19T02:32:54;15.48;90.08
65470;DHT22;52067;50.710;14.492;2023-09-19T02:35:19;15.28;90.60
65470;DHT22;52067;50.710;14.492;2023-09-19T02:37:45;15.44;90.31
65470;DHT22;52067;50.710;14.492;2023-09-19T02:40:10;15.48;89.95
65470;DHT22;52067;50.710;14.492;2023-09-19T02:42:44;15.47;89.99
65470;DHT22;52067;50.710;14.492;2023-09-19T02:45:12;15.59;90.19
65470;DHT22;52067;50.710;14.492;2023-09-19T02:47:37;15.47;90.07
65470;DHT22;52067;50.710;14.492;2023-09-19T02:50:02;15.39;90.09
65470;DHT22;52067;50.710;14.492;2023-09-19T02:52:28;15.37;89.93
65470;DHT22;52067;50.710;14.492;2023-09-19T02:54:54;15.32;90.23
65470;DHT22;52067;50.710;14.492;2023-09-19T02:57:19;15.49;89.98
65470;DHT22;52067;50.710;14.492;2023-09-19T02:59:45;15.55;89.86
65470;DHT22;52067;50.710;14.492;2023-09-19T03:02:10;15.55;89.68
65470;DHT22;52067;50.710;14.492;2023-09-19T03:04:35;15.28;90.19
65470;DHT22;52067;50.710;14.492;2023-09-19T03:07:01;15.30;90.09
65470;DHT22;52067;50.710;14.492;2023-09-19T03:09:26;15.47;89.87
65470;DHT22;52067;50.710;14.492;2023-09-19T03:11:52;15.28;89.70
65470;DHT22;52067;50.710;14.492;2023-09-19T03:14:17;15.32;90.12
65470;DHT22;52067;50.710;14.492;2023-09-19T03:16:45;15.31;89.89
65470;DHT22;52067;50.710;14.492;2023-09-19T03:19:10;15.37;89.77
65470;DHT22;52067;50.710;14.492;2023-09-19T03:21:37;15.44;89.82
65470;DHT22;52067;50.710;14.492;2023-09-19T03:24:04;15.18;89.77
65470;DHT22;52067;50.710;14.492;2023-09-19T03:26:29;15.17;90.35
65470;DHT22;52067;50.710;14.492;2023-09-19T03:28:54;15.39;89.90
65470;DHT22;52067;50.710;14.492;2023-09-19T03:31:20;15.45;89.70
65470;DHT22;52067;50.710;14.492;2023-09-19T03:33:45;15.52;89.44
65470;DHT22;52067;50.710;14.492;2023-09-19T03:36:10;15.48;89.23
65470;DHT22;52067;50.710;14.492;2023-09-19T03:38:38;15.44;89.13
65470;DHT22;52067;50.710;14.492;2023-09-19T03:41:03;15.00;90.37
65470;DHT22;52067;50.710;14.492;2023-09-19T03:43:29;14.94;90.74
65470;DHT22;52067;50.710;14.492;2023-09-19T03:45:54;14.73;90.91
65470;DHT22;52067;50.710;14.492;2023-09-19T03:48:19;14.65;91.02
65470;DHT22;52067;50.710;14.492;2023-09-19T03:50:46;14.66;91.05
65470;DHT22;52067;50.710;14.492;2023-09-19T03:53:11;14.73;90.77
65470;DHT22;52067;50.710;14.492;2023-09-19T03:55:37;14.77;90.67
65470;DHT22;52067;50.710;14.492;2023-09-19T03:58:04;14.84;90.68
65470;DHT22;52067;50.710;14.492;2023-09-19T04:00:29;14.60;90.91
65470;DHT22;52067;50.710;14.492;2023-09-19T04:02:54;14.77;90.79
65470;DHT22;52067;50.710;14.492;2023-09-19T04:05:21;14.94;90.71
65470;DHT22;52067;50.710;14.492;2023-09-19T04:07:47;15.08;90.40
65470;DHT22;52067;50.710;14.492;2023-09-19T04:10:12;14.70;91.02
65470;DHT22;52067;50.710;14.492;2023-09-19T04:12:39;14.76;90.82
65470;DHT22;52067;50.710;14.492;2023-09-19T04:15:05;14.97;90.58
65470;DHT22;52067;50.710;14.492;2023-09-19T04:17:30;15.04;90.33
65470;DHT22;52067;50.710;14.492;2023-09-19T04:19:58;14.79;90.33
65470;DHT22;52067;50.710;14.492;2023-09-19T04:22:23;14.70;90.77
65470;DHT22;52067;50.710;14.492;2023-09-19T04:24:48;14.69;90.69
65470;DHT22;52067;50.710;14.492;2023-09-19T04:27:13;14.89;90.55
65470;DHT22;52067;50.710;14.492;2023-09-19T04:29:39;15.00;90.21
65470;DHT22;52067;50.710;14.492;2023-09-19T04:32:06;14.99;90.18
65470;DHT22;52067;50.710;14.492;2023-09-19T04:34:32;14.94;90.08
65470;DHT22;52067;50.710;14.492;2023-09-19T04:36:59;14.99;90.09
65470;DHT22;52067;50.710;14.492;2023-09-19T04:39:25;15.01;89.96
65470;DHT22;52067;50.710;14.492;2023-09-19T04:41:51;15.06;89.65
65470;DHT22;52067;50.710;14.492;2023-09-19T04:44:16;14.91;89.85
65470;DHT22;52067;50.710;14.492;2023-09-19T04:46:41;14.59;90.44
65470;DHT22;52067;50.710;14.492;2023-09-19T04:49:07;14.77;90.55
65470;DHT22;52067;50.710;14.492;2023-09-19T04:51:32;14.75;90.52
65470;DHT22;52067;50.710;14.492;2023-09-19T04:53:59;14.72;90.66
65470;DHT22;52067;50.710;14.492;2023-09-19T04:56:25;14.84;90.22
65470;DHT22;52067;50.710;14.492;2023-09-19T04:58:50;14.93;89.80
65470;DHT22;52067;50.710;14.492;2023-09-19T05:01:15;14.84;90.00
65470;DHT22;52067;50.710;14.492;2023-09-19T05:03:41;14.75;90.24
65470;DHT22;52067;50.710;14.492;2023-09-19T05:06:07;14.96;89.95
65470;DHT22;52067;50.710;14.492;2023-09-19T05:08:32;14.83;89.74
65470;DHT22;52067;50.710;14.492;2023-09-19T05:10:57;14.65;90.89
65470;DHT22;52067;50.710;14.492;2023-09-19T05:13:23;14.86;90.55
65470;DHT22;52067;50.710;14.492;2023-09-19T05:15:49;14.93;90.03
65470;DHT22;52067;50.710;14.492;2023-09-19T05:18:15;14.48;90.76
65470;DHT22;52067;50.710;14.492;2023-09-19T05:20:40;14.73;90.49
65470;DHT22;52067;50.710;14.492;2023-09-19T05:23:06;14.75;90.41
65470;DHT22;52067;50.710;14.492;2023-09-19T05:25:37;14.76;90.15
65470;DHT22;52067;50.710;14.492;2023-09-19T05:28:04;14.25;90.99
65470;DHT22;52067;50.710;14.492;2023-09-19T05:30:31;14.05;91.57
65470;DHT22;52067;50.710;14.492;2023-09-19T05:32:56;14.20;91.72
65470;DHT22;52067;50.710;14.492;2023-09-19T05:35:22;14.31;91.69
65470;DHT22;52067;50.710;14.492;2023-09-19T05:37:48;14.43;91.35
65470;DHT22;52067;50.710;14.492;2023-09-19T05:40:16;14.53;91.09
65470;DHT22;52067;50.710;14.492;2023-09-19T05:42:41;14.53;91.09
65470;DHT22;52067;50.710;14.492;2023-09-19T05:45:09;14.87;90.94
65470;DHT22;52067;50.710;14.492;2023-09-19T05:47:37;14.73;90.80
65470;DHT22;52067;50.710;14.492;2023-09-19T05:50:02;15.10;90.66
65470;DHT22;52067;50.710;14.492;2023-09-19T05:52:28;14.99;90.39
65470;DHT22;52067;50.710;14.492;2023-09-19T05:54:53;15.20;90.13
65470;DHT22;52067;50.710;14.492;2023-09-19T05:57:19;15.28;89.93
65470;DHT22;52067;50.710;14.492;2023-09-19T05:59:44;15.38;89.68
65470;DHT22;52067;50.710;14.492;2023-09-19T06:02:10;15.10;90.60
65470;DHT22;52067;50.710;14.492;2023-09-19T06:04:37;14.96;90.95
65470;DHT22;52067;50.710;14.492;2023-09-19T06:07:06;14.89;91.12
65470;DHT22;52067;50.710;14.492;2023-09-19T06:09:31;15.06;90.88
65470;DHT22;52067;50.710;14.492;2023-09-19T06:11:57;15.20;90.79
65470;DHT22;52067;50.710;14.492;2023-09-19T06:14:22;15.55;90.38
65470;DHT22;52067;50.710;14.492;2023-09-19T06:16:49;15.72;90.06
65470;DHT22;52067;50.710;14.492;2023-09-19T06:19:15;15.49;90.68
65470;DHT22;52067;50.710;14.492;2023-09-19T06:21:40;15.69;90.46
65470;DHT22;52067;50.710;14.492;2023-09-19T06:24:05;15.81;90.09
65470;DHT22;52067;50.710;14.492;2023-09-19T06:26:31;15.95;89.87
65470;DHT22;52067;50.710;14.492;2023-09-19T06:28:57;16.09;89.61
65470;DHT22;52067;50.710;14.492;2023-09-19T06:31:22;16.26;89.34
65470;DHT22;52067;50.710;14.492;2023-09-19T06:33:51;16.26;89.61
65470;DHT22;52067;50.710;14.492;2023-09-19T06:36:16;16.26;89.33
65470;DHT22;52067;50.710;14.492;2023-09-19T06:38:42;16.30;89.99
65470;DHT22;52067;50.710;14.492;2023-09-19T06:41:07;16.17;90.03
65470;DHT22;52067;50.710;14.492;2023-09-19T06:43:33;15.89;90.74
65470;DHT22;52067;50.710;14.492;2023-09-19T06:45:59;15.79;90.65
65470;DHT22;52067;50.710;14.492;2023-09-19T06:48:25;15.79;90.98
65470;DHT22;52067;50.710;14.492;2023-09-19T06:50:52;15.96;90.83
65470;DHT22;52067;50.710;14.492;2023-09-19T06:53:18;16.30;90.63
65470;DHT22;52067;50.710;14.492;2023-09-19T06:55:43;16.60;89.70
65470;DHT22;52067;50.710;14.492;2023-09-19T06:58:09;16.34;89.56
65470;DHT22;52067;50.710;14.492;2023-09-19T07:00:35;16.36;89.82
65470;DHT22;52067;50.710;14.492;2023-09-19T07:03:02;16.68;89.57
65470;DHT22;52067;50.710;14.492;2023-09-19T07:05:31;16.81;89.19
65470;DHT22;52067;50.710;14.492;2023-09-19T07:07:56;16.98;88.85
65470;DHT22;52067;50.710;14.492;2023-09-19T07:10:24;16.92;89.36
65470;DHT22;52067;50.710;14.492;2023-09-19T07:13:00;17.08;89.10
65470;DHT22;52067;50.710;14.492;2023-09-19T07:15:26;17.03;89.82
65470;DHT22;52067;50.710;14.492;2023-09-19T07:17:54;17.16;89.29
65470;DHT22;52067;50.710;14.492;2023-09-19T07:20:21;16.94;90.20
65470;DHT22;52067;50.710;14.492;2023-09-19T07:22:46;17.12;90.14
65470;DHT22;52067;50.710;14.492;2023-09-19T07:25:16;16.85;90.01
65470;DHT22;52067;50.710;14.492;2023-09-19T07:27:41;16.98;90.12
65470;DHT22;52067;50.710;14.492;2023-09-19T07:30:06;17.29;89.28
65470;DHT22;52067;50.710;14.492;2023-09-19T07:32:33;17.53;88.81
65470;DHT22;52067;50.710;14.492;2023-09-19T07:34:58;17.73;87.97
65470;DHT22;52067;50.710;14.492;2023-09-19T07:37:24;17.50;88.38
65470;DHT22;52067;50.710;14.492;2023-09-19T07:39:52;17.46;89.50
65470;DHT22;52067;50.710;14.492;2023-09-19T07:42:18;17.61;88.97
65470;DHT22;52067;50.710;14.492;2023-09-19T07:44:44;17.37;89.95
65470;DHT22;52067;50.710;14.492;2023-09-19T07:47:13;17.51;89.61
65470;DHT22;52067;50.710;14.492;2023-09-19T07:49:38;17.74;89.04
65470;DHT22;52067;50.710;14.492;2023-09-19T07:52:04;17.39;88.28
65470;DHT22;52067;50.710;14.492;2023-09-19T07:54:29;17.75;88.67
65470;DHT22;52067;50.710;14.492;2023-09-19T07:57:00;18.06;89.15
65470;DHT22;52067;50.710;14.492;2023-09-19T07:59:25;17.98;88.58
65470;DHT22;52067;50.710;14.492;2023-09-19T08:01:51;18.22;88.59
65470;DHT22;52067;50.710;14.492;2023-09-19T08:04:17;18.59;86.76
65470;DHT22;52067;50.710;14.492;2023-09-19T08:06:44;18.86;84.85
65470;DHT22;52067;50.710;14.492;2023-09-19T08:09:09;19.03;83.89
65470;DHT22;52067;50.710;14.492;2023-09-19T08:11:36;19.19;83.83
65470;DHT22;52067;50.710;14.492;2023-09-19T08:14:01;19.00;83.73
65470;DHT22;52067;50.710;14.492;2023-09-19T08:16:26;18.69;83.90
65470;DHT22;52067;50.710;14.492;2023-09-19T08:18:52;18.84;83.53
65470;DHT22;52067;50.710;14.492;2023-09-19T08:21:20;18.90;82.16
65470;DHT22;52067;50.710;14.492;2023-09-19T08:23:45;18.73;82.43
65470;DHT22;52067;50.710;14.492;2023-09-19T08:26:10;18.81;80.80
65470;DHT22;52067;50.710;14.492;2023-09-19T08:28:36;18.70;79.42
65470;DHT22;52067;50.710;14.492;2023-09-19T08:31:02;18.74;79.37
65470;DHT22;52067;50.710;14.492;2023-09-19T08:33:31;19.15;80.50
65470;DHT22;52067;50.710;14.492;2023-09-19T08:35:56;19.34;82.68
65470;DHT22;52067;50.710;14.492;2023-09-19T08:38:21;19.34;80.01
65470;DHT22;52067;50.710;14.492;2023-09-19T08:40:47;19.55;80.83
65470;DHT22;52067;50.710;14.492;2023-09-19T08:43:12;19.75;79.16
65470;DHT22;52067;50.710;14.492;2023-09-19T08:45:37;19.44;80.74
65470;DHT22;52067;50.710;14.492;2023-09-19T08:53:20;20.14;77.51
65470;DHT22;52067;50.710;14.492;2023-09-19T08:55:47;20.06;74.71
65470;DHT22;52067;50.710;14.492;2023-09-19T08:58:16;20.10;78.97
65470;DHT22;52067;50.710;14.492;2023-09-19T09:00:44;20.64;76.13
65470;DHT22;52067;50.710;14.492;2023-09-19T09:03:11;20.54;77.13
65470;DHT22;52067;50.710;14.492;2023-09-19T09:05:37;20.51;77.35
65470;DHT22;52067;50.710;14.492;2023-09-19T09:08:07;20.49;78.80
65470;DHT22;52067;50.710;14.492;2023-09-19T09:10:32;20.17;77.50
65470;DHT22;52067;50.710;14.492;2023-09-19T09:12:58;19.93;78.64
65470;DHT22;52067;50.710;14.492;2023-09-19T09:15:23;20.78;75.43
65470;DHT22;52067;50.710;14.492;2023-09-19T09:17:52;21.29;70.50
65470;DHT22;52067;50.710;14.492;2023-09-19T09:20:20;21.49;67.70
65470;DHT22;52067;50.710;14.492;2023-09-19T09:22:52;21.49;66.10
65470;DHT22;52067;50.710;14.492;2023-09-19T09:25:23;21.14;67.73
65470;DHT22;52067;50.710;14.492;2023-09-19T09:28:08;21.32;68.09
65470;DHT22;52067;50.710;14.492;2023-09-19T09:30:34;21.51;65.71
65470;DHT22;52067;50.710;14.492;2023-09-19T09:33:09;21.81;64.45
65470;DHT22;52067;50.710;14.492;2023-09-19T09:35:36;21.99;62.88
65470;DHT22;52067;50.710;14.492;2023-09-19T09:38:01;22.08;61.38
65470;DHT22;52067;50.710;14.492;2023-09-19T09:40:45;22.64;60.38
65470;DHT22;52067;50.710;14.492;2023-09-19T09:43:24;24.24;57.04
65470;DHT22;52067;50.710;14.492;2023-09-19T09:45:55;25.67;55.11
65470;DHT22;52067;50.710;14.492;2023-09-19T09:48:35;26.53;51.13
65470;DHT22;52067;50.710;14.492;2023-09-19T09:51:03;27.05;49.49
65470;DHT22;52067;50.710;14.492;2023-09-19T09:53:32;27.49;47.32
65470;DHT22;52067;50.710;14.492;2023-09-19T09:56:05;27.89;47.83
65470;DHT22;52067;50.710;14.492;2023-09-19T09:58:37;25.78;48.30
65470;DHT22;52067;50.710;14.492;2023-09-19T10:01:05;25.78;49.82
65470;DHT22;52067;50.710;14.492;2023-09-19T10:03:39;26.26;49.00
65470;DHT22;52067;50.710;14.492;2023-09-19T10:06:06;25.71;49.28
65470;DHT22;52067;50.710;14.492;2023-09-19T10:09:06;26.70;47.05
65470;DHT22;52067;50.710;14.492;2023-09-19T10:11:39;25.36;49.76
65470;DHT22;52067;50.710;14.492;2023-09-19T10:14:05;24.58;50.26
65470;DHT22;52067;50.710;14.492;2023-09-19T10:16:33;24.62;50.12
65470;DHT22;52067;50.710;14.492;2023-09-19T10:19:01;23.39;52.12
65470;DHT22;52067;50.710;14.492;2023-09-19T10:21:27;23.14;55.22
65470;DHT22;52067;50.710;14.492;2023-09-19T10:23:55;24.06;51.10
65470;DHT22;52067;50.710;14.492;2023-09-19T10:26:25;23.31;54.54
65470;DHT22;52067;50.710;14.492;2023-09-19T10:28:51;22.52;54.04
65470;DHT22;52067;50.710;14.492;2023-09-19T10:31:18;22.39;55.03
65470;DHT22;52067;50.710;14.492;2023-09-19T10:33:45;23.38;53.35
65470;DHT22;52067;50.710;14.492;2023-09-19T10:36:10;24.67;51.61
65470;DHT22;52067;50.710;14.492;2023-09-19T10:38:37;26.56;47.42
65470;DHT22;52067;50.710;14.492;2023-09-19T10:41:05;28.48;42.12
65470;DHT22;52067;50.710;14.492;2023-09-19T10:43:31;29.37;43.34
65470;DHT22;52067;50.710;14.492;2023-09-19T10:45:58;27.61;45.12
65470;DHT22;52067;50.710;14.492;2023-09-19T10:48:25;27.67;42.73
65470;DHT22;52067;50.710;14.492;2023-09-19T10:53:16;23.11;57.25
65470;DHT22;52067;50.710;14.492;2023-09-19T10:55:47;23.25;55.68
65470;DHT22;52067;50.710;14.492;2023-09-19T10:58:13;23.00;59.12
65470;DHT22;52067;50.710;14.492;2023-09-19T11:00:50;22.63;58.85
65470;DHT22;52067;50.710;14.492;2023-09-19T11:03:16;21.80;60.28
65470;DHT22;52067;50.710;14.492;2023-09-19T11:06:19;21.60;60.55
65470;DHT22;52067;50.710;14.492;2023-09-19T11:08:51;21.71;61.64
65470;DHT22;52067;50.710;14.492;2023-09-19T11:14:16;21.13;61.80
65470;DHT22;52067;50.710;14.492;2023-09-19T11:22:18;21.47;62.23
65470;DHT22;52067;50.710;14.492;2023-09-19T11:24:44;21.80;60.80
65470;DHT22;52067;50.710;14.492;2023-09-19T11:27:14;21.92;60.54
65470;DHT22;52067;50.710;14.492;2023-09-19T11:29:42;23.94;56.85
65470;DHT22;52067;50.710;14.492;2023-09-19T11:32:07;24.99;56.29
65470;DHT22;52067;50.710;14.492;2023-09-19T11:34:38;23.08;58.47
65470;DHT22;52067;50.710;14.492;2023-09-19T11:39:29;26.16;47.35
65470;DHT22;52067;50.710;14.492;2023-09-19T11:41:55;25.60;51.50
65470;DHT22;52067;50.710;14.492;2023-09-19T11:44:32;28.23;44.81
65470;DHT22;52067;50.710;14.492;2023-09-19T11:46:58;28.89;39.95
65470;DHT22;52067;50.710;14.492;2023-09-19T11:49:31;27.45;42.40
65470;DHT22;52067;50.710;14.492;2023-09-19T11:51:57;26.14;44.93
65470;DHT22;52067;50.710;14.492;2023-09-19T11:54:25;27.89;41.05
65470;DHT22;52067;50.710;14.492;2023-09-19T11:56:54;27.11;40.79
65470;DHT22;52067;50.710;14.492;2023-09-19T11:59:20;28.10;39.54
65470;DHT22;52067;50.710;14.492;2023-09-19T12:01:50;28.45;39.76
65470;DHT22;52067;50.710;14.492;2023-09-19T12:04:38;29.29;39.17
65470;DHT22;52067;50.710;14.492;2023-09-19T12:07:07;28.54;37.96
65470;DHT22;52067;50.710;14.492;2023-09-19T12:09:39;27.05;41.18
65470;DHT22;52067;50.710;14.492;2023-09-19T12:12:24;27.11;42.01
65470;DHT22;52067;50.710;14.492;2023-09-19T12:14:53;28.10;39.13
65470;DHT22;52067;50.710;14.492;2023-09-19T12:17:19;28.62;37.28
65470;DHT22;52067;50.710;14.492;2023-09-19T12:19:55;28.55;36.38
65470;DHT22;52067;50.710;14.492;2023-09-19T12:22:20;26.22;39.72
65470;DHT22;52067;50.710;14.492;2023-09-19T12:24:46;25.34;40.15
65470;DHT22;52067;50.710;14.492;2023-09-19T12:27:11;26.36;42.47
65470;DHT22;52067;50.710;14.492;2023-09-19T12:29:47;27.66;39.36
65470;DHT22;52067;50.710;14.492;2023-09-19T12:32:16;28.11;37.62
65470;DHT22;52067;50.710;14.492;2023-09-19T12:34:42;27.04;38.68
65470;DHT22;52067;50.710;14.492;2023-09-19T12:39:53;26.39;37.94
65470;DHT22;52067;50.710;14.492;2023-09-19T12:42:22;27.17;39.45
65470;DHT22;52067;50.710;14.492;2023-09-19T12:44:48;27.67;38.07
65470;DHT22;52067;50.710;14.492;2023-09-19T12:47:15;27.31;36.43
65470;DHT22;52067;50.710;14.492;2023-09-19T12:52:36;27.03;37.19
65470;DHT22;52067;50.710;14.492;2023-09-19T12:55:02;26.97;36.63
65470;DHT22;52067;50.710;14.492;2023-09-19T12:57:28;26.80;37.84
65470;DHT22;52067;50.710;14.492;2023-09-19T12:59:57;26.06;37.73
65470;DHT22;52067;50.710;14.492;2023-09-19T13:02:22;24.81;37.65
65470;DHT22;52067;50.710;14.492;2023-09-19T13:04:52;24.43;40.32
65470;DHT22;52067;50.710;14.492;2023-09-19T13:10:03;25.44;41.26
65470;DHT22;52067;50.710;14.492;2023-09-19T13:12:37;26.36;37.81
65470;DHT22;52067;50.710;14.492;2023-09-19T13:15:10;26.60;35.24
65470;DHT22;52067;50.710;14.492;2023-09-19T13:17:48;26.52;36.00
65470;DHT22;52067;50.710;14.492;2023-09-19T13:20:53;26.83;35.29
65470;DHT22;52067;50.710;14.492;2023-09-19T13:23:25;26.86;34.96
65470;DHT22;52067;50.710;14.492;2023-09-19T13:25:50;27.10;36.31
65470;DHT22;52067;50.710;14.492;2023-09-19T13:28:16;27.18;36.68
65470;DHT22;52067;50.710;14.492;2023-09-19T13:30:41;26.93;38.29
65470;DHT22;52067;50.710;14.492;2023-09-19T13:33:09;26.29;36.88
65470;DHT22;52067;50.710;14.492;2023-09-19T13:35:35;26.06;37.18
65470;DHT22;52067;50.710;14.492;2023-09-19T13:38:03;25.26;38.22
65470;DHT22;52067;50.710;14.492;2023-09-19T13:40:29;24.88;39.02
65470;DHT22;52067;50.710;14.492;2023-09-19T13:43:00;24.91;40.57
65470;DHT22;52067;50.710;14.492;2023-09-19T13:45:25;25.41;38.25
65470;DHT22;52067;50.710;14.492;2023-09-19T13:47:52;25.30;38.82
65470;DHT22;52067;50.710;14.492;2023-09-19T13:50:17;25.37;37.74
65470;DHT22;52067;50.710;14.492;2023-09-19T13:52:48;25.77;37.86
65470;DHT22;52067;50.710;14.492;2023-09-19T13:55:16;25.95;36.33
65470;DHT22;52067;50.710;14.492;2023-09-19T13:57:45;25.34;36.83
65470;DHT22;52067;50.710;14.492;2023-09-19T14:00:10;24.73;39.24
65470;DHT22;52067;50.710;14.492;2023-09-19T14:02:36;25.78;37.35
65470;DHT22;52067;50.710;14.492;2023-09-19T14:05:01;26.02;37.01
65470;DHT22;52067;50.710;14.492;2023-09-19T14:07:26;25.46;38.11
65470;DHT22;52067;50.710;14.492;2023-09-19T14:09:51;25.75;38.17
65470;DHT22;52067;50.710;14.492;2023-09-19T14:12:17;25.61;37.57
65470;DHT22;52067;50.710;14.492;2023-09-19T14:14:43;25.30;38.08
65470;DHT22;52067;50.710;14.492;2023-09-19T14:17:10;24.89;40.43
65470;DHT22;52067;50.710;14.492;2023-09-19T14:19:35;24.99;39.78
65470;DHT22;52067;50.710;14.492;2023-09-19T14:22:01;24.91;40.56
65470;DHT22;52067;50.710;14.492;2023-09-19T14:24:32;25.02;38.91
65470;DHT22;52067;50.710;14.492;2023-09-19T14:26:57;25.22;39.03
65470;DHT22;52067;50.710;14.492;2023-09-19T14:29:24;24.89;39.29
65470;DHT22;52067;50.710;14.492;2023-09-19T14:31:49;25.19;39.79
65470;DHT22;52067;50.710;14.492;2023-09-19T14:34:16;25.30;39.21
65470;DHT22;52067;50.710;14.492;2023-09-19T14:36:42;25.24;39.81
65470;DHT22;52067;50.710;14.492;2023-09-19T14:39:07;25.44;39.09
65470;DHT22;52067;50.710;14.492;2023-09-19T14:41:33;25.02;40.01
65470;DHT22;52067;50.710;14.492;2023-09-19T14:43:58;24.58;40.05
65470;DHT22;52067;50.710;14.492;2023-09-19T14:46:24;23.90;40.70
65470;DHT22;52067;50.710;14.492;2023-09-19T14:48:51;23.66;40.78
65470;DHT22;52067;50.710;14.492;2023-09-19T14:51:16;24.28;39.86
65470;DHT22;52067;50.710;14.492;2023-09-19T14:53:42;24.73;40.24
65470;DHT22;52067;50.710;14.492;2023-09-19T14:56:08;24.85;39.45
65470;DHT22;52067;50.710;14.492;2023-09-19T14:58:34;24.91;40.93
65470;DHT22;52067;50.710;14.492;2023-09-19T15:03:28;24.61;41.21
65470;DHT22;52067;50.710;14.492;2023-09-19T15:05:58;24.50;41.86
65470;DHT22;52067;50.710;14.492;2023-09-19T15:08:25;24.27;43.64
65470;DHT22;52067;50.710;14.492;2023-09-19T15:10:50;24.31;43.74
65470;DHT22;52067;50.710;14.492;2023-09-19T15:13:19;24.33;43.28
65470;DHT22;52067;50.710;14.492;2023-09-19T15:15:45;23.79;43.10
65470;DHT22;52067;50.710;14.492;2023-09-19T15:18:12;23.44;45.34
65470;DHT22;52067;50.710;14.492;2023-09-19T15:20:42;23.25;45.35
65470;DHT22;52067;50.710;14.492;2023-09-19T15:23:07;23.07;46.33
65470;DHT22;52067;50.710;14.492;2023-09-19T15:25:32;22.91;46.31
65470;DHT22;52067;50.710;14.492;2023-09-19T15:28:00;22.78;45.74
65470;DHT22;52067;50.710;14.492;2023-09-19T15:30:36;22.78;45.30
65470;DHT22;52067;50.710;14.492;2023-09-19T15:33:01;22.80;46.74
65470;DHT22;52067;50.710;14.492;2023-09-19T15:35:26;22.94;45.98
65470;DHT22;52067;50.710;14.492;2023-09-19T15:37:52;23.15;46.65
65470;DHT22;52067;50.710;14.492;2023-09-19T15:40:18;23.11;45.99
65470;DHT22;52067;50.710;14.492;2023-09-19T15:42:44;23.03;46.45
65470;DHT22;52067;50.710;14.492;2023-09-19T15:45:09;23.07;45.91
65470;DHT22;52067;50.710;14.492;2023-09-19T15:47:36;22.73;48.43
65470;DHT22;52067;50.710;14.492;2023-09-19T15:50:02;22.71;45.01
65470;DHT22;52067;50.710;14.492;2023-09-19T15:52:28;22.59;46.42